sensor_id;sensor_type;location;lat;lon;timestamp;temperature;humidity
10010;DHT22;5044;48.652;9.250;2023-06-14T00:00:33;15.70;53.60
10010;DHT22;5044;48.652;9.250;2023-06-14T00:03:01;15.60;53.80
10010;DHT22;5044;48.652;9.250;2023-06-14T00:05:37;15.40;53.40
10010;DHT22;5044;48.652;9.250;2023-06-14T00:08:09;15.40;54.50
10010;DHT22;5044;48.652;9.250;2023-06-14T00:10:37;15.40;54.10
10010;DHT22;5044;48.652;9.250;2023-06-14T00:13:07;15.40;54.70
10010;DHT22;5044;48.652;9.250;2023-06-14T00:15:34;15.30;55.30
10010;DHT22;5044;48.652;9.250;2023-06-14T00:18:02;15.20;56.20
10010;DHT22;5044;48.652;9.250;2023-06-14T00:20:31;15.20;56.80
10010;DHT22;5044;48.652;9.250;2023-06-14T00:22:59;15.20;56.20
10010;DHT22;5044;48.652;9.250;2023-06-14T00:25:26;15.20;57.50
10010;DHT22;5044;48.652;9.250;2023-06-14T00:27:56;15.20;58.00
10010;DHT22;5044;48.652;9.250;2023-06-14T00:30:24;15.10;57.50
10010;DHT22;5044;48.652;9.250;2023-06-14T00:32:57;15.00;57.20
10010;DHT22;5044;48.652;9.250;2023-06-14T00:35:24;14.90;57.90
10010;DHT22;5044;48.652;9.250;2023-06-14T00:37:53;14.80;59.90
10010;DHT22;5044;48.652;9.250;2023-06-14T00:40:20;14.90;57.70
10010;DHT22;5044;48.652;9.250;2023-06-14T00:42:49;14.90;55.60
10010;DHT22;5044;48.652;9.250;2023-06-14T00:45:19;15.00;55.60
10010;DHT22;5044;48.652;9.250;2023-06-14T00:47:48;15.00;54.20
10010;DHT22;5044;48.652;9.250;2023-06-14T00:50:21;14.90;54.90
10010;DHT22;5044;48.652;9.250;2023-06-14T00:52:50;14.90;56.40
10010;DHT22;5044;48.652;9.250;2023-06-14T00:55:17;14.80;55.70
10010;DHT22;5044;48.652;9.250;2023-06-14T00:57:45;14.80;56.80
10010;DHT22;5044;48.652;9.250;2023-06-14T01:00:15;14.70;57.10
10010;DHT22;5044;48.652;9.250;2023-06-14T01:02:46;14.60;58.50
10010;DHT22;5044;48.652;9.250;2023-06-14T01:05:17;14.50;59.10
10010;DHT22;5044;48.652;9.250;2023-06-14T01:21:04;14.40;55.20
10010;DHT22;5044;48.652;9.250;2023-06-14T01:23:34;14.40;56.00
10010;DHT22;5044;48.652;9.250;2023-06-14T01:26:01;14.40;55.40
10010;DHT22;5044;48.652;9.250;2023-06-14T01:28:35;14.40;57.90
10010;DHT22;5044;48.652;9.250;2023-06-14T01:31:03;14.30;58.80
10010;DHT22;5044;48.652;9.250;2023-06-14T01:33:31;14.30;56.60
10010;DHT22;5044;48.652;9.250;2023-06-14T01:36:05;14.20;59.80
10010;DHT22;5044;48.652;9.250;2023-06-14T01:38:42;14.00;57.70
10010;DHT22;5044;48.652;9.250;2023-06-14T01:41:12;14.10;56.70
10010;DHT22;5044;48.652;9.250;2023-06-14T01:43:42;14.20;57.50
10010;DHT22;5044;48.652;9.250;2023-06-14T01:46:10;14.20;58.10
10010;DHT22;5044;48.652;9.250;2023-06-14T01:48:38;14.10;58.50
10010;DHT22;5044;48.652;9.250;2023-06-14T01:51:09;14.20;59.60
10010;DHT22;5044;48.652;9.250;2023-06-14T01:53:36;14.10;58.60
10010;DHT22;5044;48.652;9.250;2023-06-14T01:59:25;14.00;58.20
10010;DHT22;5044;48.652;9.250;2023-06-14T02:48:30;13.10;73.80
10010;DHT22;5044;48.652;9.250;2023-06-14T03:58:19;12.40;84.80
10010;DHT22;5044;48.652;9.250;2023-06-14T04:00:46;12.50;79.10
10010;DHT22;5044;48.652;9.250;2023-06-14T04:03:14;12.60;77.80
10010;DHT22;5044;48.652;9.250;2023-06-14T04:21:16;12.50;72.50
10010;DHT22;5044;48.652;9.250;2023-06-14T04:23:43;12.50;70.10
10010;DHT22;5044;48.652;9.250;2023-06-14T04:26:10;12.50;73.60
10010;DHT22;5044;48.652;9.250;2023-06-14T04:28:37;12.60;81.10
10010;DHT22;5044;48.652;9.250;2023-06-14T04:31:06;12.60;72.20
10010;DHT22;5044;48.652;9.250;2023-06-14T04:33:34;12.60;78.90
10010;DHT22;5044;48.652;9.250;2023-06-14T04:36:08;12.60;73.60
10010;DHT22;5044;48.652;9.250;2023-06-14T04:38:40;12.60;80.60
10010;DHT22;5044;48.652;9.250;2023-06-14T04:41:10;12.60;76.00
10010;DHT22;5044;48.652;9.250;2023-06-14T04:43:38;12.60;61.70
10010;DHT22;5044;48.652;9.250;2023-06-14T04:46:05;12.60;66.30
10010;DHT22;5044;48.652;9.250;2023-06-14T04:48:35;12.60;61.40
10010;DHT22;5044;48.652;9.250;2023-06-14T04:51:02;12.70;61.80
10010;DHT22;5044;48.652;9.250;2023-06-14T04:53:30;12.70;57.80
10010;DHT22;5044;48.652;9.250;2023-06-14T04:55:58;12.70;57.90
10010;DHT22;5044;48.652;9.250;2023-06-14T04:58:26;12.80;56.70
10010;DHT22;5044;48.652;9.250;2023-06-14T05:06:09;12.90;60.60
10010;DHT22;5044;48.652;9.250;2023-06-14T05:08:37;13.00;61.30
10010;DHT22;5044;48.652;9.250;2023-06-14T05:11:09;13.00;58.10
10010;DHT22;5044;48.652;9.250;2023-06-14T05:13:36;13.00;59.10
10010;DHT22;5044;48.652;9.250;2023-06-14T05:16:03;13.20;59.30
10010;DHT22;5044;48.652;9.250;2023-06-14T05:18:31;13.20;58.00
10010;DHT22;5044;48.652;9.250;2023-06-14T05:21:06;13.30;59.50
10010;DHT22;5044;48.652;9.250;2023-06-14T05:23:34;13.50;59.30
10010;DHT22;5044;48.652;9.250;2023-06-14T05:26:01;13.60;59.30
10010;DHT22;5044;48.652;9.250;2023-06-14T05:28:31;13.80;58.20
10010;DHT22;5044;48.652;9.250;2023-06-14T05:30:58;14.00;59.70
10010;DHT22;5044;48.652;9.250;2023-06-14T05:33:30;14.30;59.40
10010;DHT22;5044;48.652;9.250;2023-06-14T05:36:03;14.40;59.40
10010;DHT22;5044;48.652;9.250;2023-06-14T05:38:30;14.70;63.50
10010;DHT22;5044;48.652;9.250;2023-06-14T05:40:58;14.90;62.40
10010;DHT22;5044;48.652;9.250;2023-06-14T05:43:46;15.10;69.60
10010;DHT22;5044;48.652;9.250;2023-06-14T05:46:19;15.40;65.60
10010;DHT22;5044;48.652;9.250;2023-06-14T05:48:51;15.60;71.60
10010;DHT22;5044;48.652;9.250;2023-06-14T05:51:26;15.90;68.70
10010;DHT22;5044;48.652;9.250;2023-06-14T05:53:54;16.10;62.90
10010;DHT22;5044;48.652;9.250;2023-06-14T05:56:23;16.30;65.50
10010;DHT22;5044;48.652;9.250;2023-06-14T05:58:57;16.50;63.10
10010;DHT22;5044;48.652;9.250;2023-06-14T06:01:24;16.80;63.90
10010;DHT22;5044;48.652;9.250;2023-06-14T06:03:53;17.00;64.40
10010;DHT22;5044;48.652;9.250;2023-06-14T06:06:21;17.00;61.60
10010;DHT22;5044;48.652;9.250;2023-06-14T06:08:48;17.10;62.40
10010;DHT22;5044;48.652;9.250;2023-06-14T06:14:41;17.50;62.60
10010;DHT22;5044;48.652;9.250;2023-06-14T06:17:09;17.60;57.40
10010;DHT22;5044;48.652;9.250;2023-06-14T06:19:43;17.90;57.50
10010;DHT22;5044;48.652;9.250;2023-06-14T06:22:10;18.20;59.20
10010;DHT22;5044;48.652;9.250;2023-06-14T06:24:37;18.30;57.20
10010;DHT22;5044;48.652;9.250;2023-06-14T06:27:11;18.10;57.30
10010;DHT22;5044;48.652;9.250;2023-06-14T06:29:53;18.50;58.60
10010;DHT22;5044;48.652;9.250;2023-06-14T06:32:20;18.80;59.10
10010;DHT22;5044;48.652;9.250;2023-06-14T06:34:47;19.10;56.60
10010;DHT22;5044;48.652;9.250;2023-06-14T06:37:14;19.20;56.70
10010;DHT22;5044;48.652;9.250;2023-06-14T06:39:41;19.10;54.50
10010;DHT22;5044;48.652;9.250;2023-06-14T06:42:08;19.00;54.20
10010;DHT22;5044;48.652;9.250;2023-06-14T06:44:36;18.60;53.40
10010;DHT22;5044;48.652;9.250;2023-06-14T06:47:05;19.00;54.80
10010;DHT22;5044;48.652;9.250;2023-06-14T06:49:31;19.30;54.20
10010;DHT22;5044;48.652;9.250;2023-06-14T06:52:02;19.70;53.50
10010;DHT22;5044;48.652;9.250;2023-06-14T06:54:29;19.80;52.90
10010;DHT22;5044;48.652;9.250;2023-06-14T06:56:56;20.20;52.60
10010;DHT22;5044;48.652;9.250;2023-06-14T06:59:23;19.90;51.80
10010;DHT22;5044;48.652;9.250;2023-06-14T07:01:50;20.40;52.80
10010;DHT22;5044;48.652;9.250;2023-06-14T07:04:18;20.50;51.90
10010;DHT22;5044;48.652;9.250;2023-06-14T07:06:46;20.70;51.20
10010;DHT22;5044;48.652;9.250;2023-06-14T07:09:13;20.60;51.60
10010;DHT22;5044;48.652;9.250;2023-06-14T07:11:42;20.90;51.30
10010;DHT22;5044;48.652;9.250;2023-06-14T07:14:09;20.70;49.90
10010;DHT22;5044;48.652;9.250;2023-06-14T07:16:39;21.10;50.30
10010;DHT22;5044;48.652;9.250;2023-06-14T07:19:06;20.80;49.60
10010;DHT22;5044;48.652;9.250;2023-06-14T07:21:36;21.30;50.00
10010;DHT22;5044;48.652;9.250;2023-06-14T07:24:04;21.40;48.80
10010;DHT22;5044;48.652;9.250;2023-06-14T07:26:32;21.40;49.50
10010;DHT22;5044;48.652;9.250;2023-06-14T07:28:58;21.60;48.70
10010;DHT22;5044;48.652;9.250;2023-06-14T07:31:25;21.50;48.80
10010;DHT22;5044;48.652;9.250;2023-06-14T07:33:53;21.80;49.20
10010;DHT22;5044;48.652;9.250;2023-06-14T07:36:19;22.20;49.30
10010;DHT22;5044;48.652;9.250;2023-06-14T07:38:48;22.40;48.50
10010;DHT22;5044;48.652;9.250;2023-06-14T07:41:14;22.20;48.00
10010;DHT22;5044;48.652;9.250;2023-06-14T07:43:41;22.70;48.40
10010;DHT22;5044;48.652;9.250;2023-06-14T07:46:09;22.90;47.90
10010;DHT22;5044;48.652;9.250;2023-06-14T07:48:36;22.80;48.20
10010;DHT22;5044;48.652;9.250;2023-06-14T07:51:02;23.20;48.60
10010;DHT22;5044;48.652;9.250;2023-06-14T07:53:29;22.60;46.60
10010;DHT22;5044;48.652;9.250;2023-06-14T07:55:58;23.00;47.70
10010;DHT22;5044;48.652;9.250;2023-06-14T07:58:25;23.20;47.70
10010;DHT22;5044;48.652;9.250;2023-06-14T08:00:52;22.90;47.40
10010;DHT22;5044;48.652;9.250;2023-06-14T08:03:19;23.30;47.90
10010;DHT22;5044;48.652;9.250;2023-06-14T08:05:46;23.50;47.00
10010;DHT22;5044;48.652;9.250;2023-06-14T08:08:12;24.00;47.00
10010;DHT22;5044;48.652;9.250;2023-06-14T08:10:39;23.60;45.60
10010;DHT22;5044;48.652;9.250;2023-06-14T08:13:07;23.20;45.10
10010;DHT22;5044;48.652;9.250;2023-06-14T08:15:35;23.70;47.10
10010;DHT22;5044;48.652;9.250;2023-06-14T08:18:02;23.90;45.90
10010;DHT22;5044;48.652;9.250;2023-06-14T08:20:29;24.00;45.70
10010;DHT22;5044;48.652;9.250;2023-06-14T08:22:57;24.10;45.80
10010;DHT22;5044;48.652;9.250;2023-06-14T08:25:24;24.20;46.00
10010;DHT22;5044;48.652;9.250;2023-06-14T08:27:51;23.90;45.10
10010;DHT22;5044;48.652;9.250;2023-06-14T08:30:19;24.60;46.30
10010;DHT22;5044;48.652;9.250;2023-06-14T08:32:46;24.90;45.90
10010;DHT22;5044;48.652;9.250;2023-06-14T08:35:13;24.70;44.80
10010;DHT22;5044;48.652;9.250;2023-06-14T08:37:40;24.90;45.10
10010;DHT22;5044;48.652;9.250;2023-06-14T08:40:17;25.00;44.80
10010;DHT22;5044;48.652;9.250;2023-06-14T08:42:47;24.70;44.10
10010;DHT22;5044;48.652;9.250;2023-06-14T08:45:14;24.80;44.30
10010;DHT22;5044;48.652;9.250;2023-06-14T08:47:42;24.60;43.20
10010;DHT22;5044;48.652;9.250;2023-06-14T08:50:09;24.60;43.30
10010;DHT22;5044;48.652;9.250;2023-06-14T08:52:38;24.80;44.20
10010;DHT22;5044;48.652;9.250;2023-06-14T08:55:11;25.50;44.60
10010;DHT22;5044;48.652;9.250;2023-06-14T08:57:39;25.70;43.70
10010;DHT22;5044;48.652;9.250;2023-06-14T09:00:07;25.40;42.60
10010;DHT22;5044;48.652;9.250;2023-06-14T09:02:38;25.70;43.70
10010;DHT22;5044;48.652;9.250;2023-06-14T09:05:10;25.50;42.40
10010;DHT22;5044;48.652;9.250;2023-06-14T09:07:39;26.10;43.20
10010;DHT22;5044;48.652;9.250;2023-06-14T09:10:08;26.10;42.70
10010;DHT22;5044;48.652;9.250;2023-06-14T09:12:36;26.40;42.70
10010;DHT22;5044;48.652;9.250;2023-06-14T09:15:04;26.20;43.00
10010;DHT22;5044;48.652;9.250;2023-06-14T09:17:34;26.60;42.70
10010;DHT22;5044;48.652;9.250;2023-06-14T09:20:01;26.60;41.80
10010;DHT22;5044;48.652;9.250;2023-06-14T09:22:33;26.60;42.00
10010;DHT22;5044;48.652;9.250;2023-06-14T09:25:00;26.40;41.10
10010;DHT22;5044;48.652;9.250;2023-06-14T09:27:27;26.60;41.50
10010;DHT22;5044;48.652;9.250;2023-06-14T09:29:54;27.20;41.80
10010;DHT22;5044;48.652;9.250;2023-06-14T09:32:21;27.10;40.70
10010;DHT22;5044;48.652;9.250;2023-06-14T09:34:48;26.20;39.80
10010;DHT22;5044;48.652;9.250;2023-06-14T09:37:27;26.00;40.00
10010;DHT22;5044;48.652;9.250;2023-06-14T09:39:55;26.80;40.70
10010;DHT22;5044;48.652;9.250;2023-06-14T09:42:22;27.60;41.40
10010;DHT22;5044;48.652;9.250;2023-06-14T09:44:51;28.20;40.90
10010;DHT22;5044;48.652;9.250;2023-06-14T09:47:19;28.00;40.00
10010;DHT22;5044;48.652;9.250;2023-06-14T09:49:45;27.80;38.60
10010;DHT22;5044;48.652;9.250;2023-06-14T09:52:14;26.70;37.50
10010;DHT22;5044;48.652;9.250;2023-06-14T09:54:42;26.90;38.60
10010;DHT22;5044;48.652;9.250;2023-06-14T09:57:11;27.30;38.10
10010;DHT22;5044;48.652;9.250;2023-06-14T09:59:40;27.50;38.00
10010;DHT22;5044;48.652;9.250;2023-06-14T10:02:14;27.90;37.80
10010;DHT22;5044;48.652;9.250;2023-06-14T10:04:48;27.00;37.20
10010;DHT22;5044;48.652;9.250;2023-06-14T10:07:19;27.70;37.90
10010;DHT22;5044;48.652;9.250;2023-06-14T10:09:47;28.40;38.20
10010;DHT22;5044;48.652;9.250;2023-06-14T10:12:17;28.40;37.40
10010;DHT22;5044;48.652;9.250;2023-06-14T10:14:48;27.80;36.20
10010;DHT22;5044;48.652;9.250;2023-06-14T10:17:25;27.00;36.30
10010;DHT22;5044;48.652;9.250;2023-06-14T10:19:56;27.30;36.60
10010;DHT22;5044;48.652;9.250;2023-06-14T10:22:30;26.90;36.60
10010;DHT22;5044;48.652;9.250;2023-06-14T10:24:59;27.70;37.60
10010;DHT22;5044;48.652;9.250;2023-06-14T10:27:28;28.20;37.40
10010;DHT22;5044;48.652;9.250;2023-06-14T10:30:03;28.20;36.50
10010;DHT22;5044;48.652;9.250;2023-06-14T10:32:32;27.90;35.60
10010;DHT22;5044;48.652;9.250;2023-06-14T10:35:00;28.00;35.70
10010;DHT22;5044;48.652;9.250;2023-06-14T10:37:27;28.60;36.20
10010;DHT22;5044;48.652;9.250;2023-06-14T10:39:54;28.70;35.30
10010;DHT22;5044;48.652;9.250;2023-06-14T10:42:21;29.10;35.30
10010;DHT22;5044;48.652;9.250;2023-06-14T10:44:53;28.70;35.40
10010;DHT22;5044;48.652;9.250;2023-06-14T10:47:23;28.20;34.90
10010;DHT22;5044;48.652;9.250;2023-06-14T10:49:52;28.50;35.10
10010;DHT22;5044;48.652;9.250;2023-06-14T10:52:22;28.50;35.10
10010;DHT22;5044;48.652;9.250;2023-06-14T10:55:13;29.10;35.10
10010;DHT22;5044;48.652;9.250;2023-06-14T10:57:43;30.00;34.90
10010;DHT22;5044;48.652;9.250;2023-06-14T11:00:13;30.80;34.80
10010;DHT22;5044;48.652;9.250;2023-06-14T11:05:35;30.00;33.60
10010;DHT22;5044;48.652;9.250;2023-06-14T11:08:24;29.60;33.90
10010;DHT22;5044;48.652;9.250;2023-06-14T11:10:54;29.80;34.00
10010;DHT22;5044;48.652;9.250;2023-06-14T11:13:25;30.60;34.60
10010;DHT22;5044;48.652;9.250;2023-06-14T11:15:53;30.90;34.20
10010;DHT22;5044;48.652;9.250;2023-06-14T11:18:22;31.10;33.70
10010;DHT22;5044;48.652;9.250;2023-06-14T11:20:50;30.30;32.80
10010;DHT22;5044;48.652;9.250;2023-06-14T11:23:17;30.00;32.60
10010;DHT22;5044;48.652;9.250;2023-06-14T11:25:49;29.80;32.40
10010;DHT22;5044;48.652;9.250;2023-06-14T11:28:16;29.60;32.20
10010;DHT22;5044;48.652;9.250;2023-06-14T11:30:45;29.50;32.70
10010;DHT22;5044;48.652;9.250;2023-06-14T11:33:17;29.60;32.80
10010;DHT22;5044;48.652;9.250;2023-06-14T11:35:45;30.20;33.10
10010;DHT22;5044;48.652;9.250;2023-06-14T11:38:12;29.90;32.10
10010;DHT22;5044;48.652;9.250;2023-06-14T11:40:39;29.60;32.10
10010;DHT22;5044;48.652;9.250;2023-06-14T11:43:06;30.00;33.10
10010;DHT22;5044;48.652;9.250;2023-06-14T11:45:33;30.00;32.60
10010;DHT22;5044;48.652;9.250;2023-06-14T11:47:59;29.90;32.40
10010;DHT22;5044;48.652;9.250;2023-06-14T11:50:28;31.60;33.50
10010;DHT22;5044;48.652;9.250;2023-06-14T11:52:55;31.40;32.80
10010;DHT22;5044;48.652;9.250;2023-06-14T11:55:22;31.80;32.60
10010;DHT22;5044;48.652;9.250;2023-06-14T11:57:49;30.90;32.00
10010;DHT22;5044;48.652;9.250;2023-06-14T12:00:17;30.50;32.10
10010;DHT22;5044;48.652;9.250;2023-06-14T12:02:52;30.50;32.80
10010;DHT22;5044;48.652;9.250;2023-06-14T12:05:21;30.10;32.00
10010;DHT22;5044;48.652;9.250;2023-06-14T12:07:50;31.10;32.80
10010;DHT22;5044;48.652;9.250;2023-06-14T12:10:19;30.80;31.60
10010;DHT22;5044;48.652;9.250;2023-06-14T12:12:46;30.60;31.30
10010;DHT22;5044;48.652;9.250;2023-06-14T12:15:12;30.50;31.50
10010;DHT22;5044;48.652;9.250;2023-06-14T12:17:39;29.40;31.50
10010;DHT22;5044;48.652;9.250;2023-06-14T12:20:10;29.10;32.00
10010;DHT22;5044;48.652;9.250;2023-06-14T12:22:39;28.40;32.20
10010;DHT22;5044;48.652;9.250;2023-06-14T12:25:07;28.40;32.70
10010;DHT22;5044;48.652;9.250;2023-06-14T12:27:35;29.10;33.30
10010;DHT22;5044;48.652;9.250;2023-06-14T12:30:03;29.10;33.60
10010;DHT22;5044;48.652;9.250;2023-06-14T12:32:30;28.70;32.90
10010;DHT22;5044;48.652;9.250;2023-06-14T12:34:57;27.90;33.00
10010;DHT22;5044;48.652;9.250;2023-06-14T12:37:24;27.60;33.70
10010;DHT22;5044;48.652;9.250;2023-06-14T12:39:51;27.30;34.00
10010;DHT22;5044;48.652;9.250;2023-06-14T12:42:19;27.20;34.30
10010;DHT22;5044;48.652;9.250;2023-06-14T12:44:46;28.10;34.60
10010;DHT22;5044;48.652;9.250;2023-06-14T12:47:12;29.30;34.90
10010;DHT22;5044;48.652;9.250;2023-06-14T12:49:39;29.10;34.20
10010;DHT22;5044;48.652;9.250;2023-06-14T12:52:08;28.80;34.10
10010;DHT22;5044;48.652;9.250;2023-06-14T12:54:35;29.10;34.10
10010;DHT22;5044;48.652;9.250;2023-06-14T12:57:02;30.10;34.50
10010;DHT22;5044;48.652;9.250;2023-06-14T12:59:30;30.90;33.90
10010;DHT22;5044;48.652;9.250;2023-06-14T13:02:09;30.90;32.60
10010;DHT22;5044;48.652;9.250;2023-06-14T13:04:36;31.50;32.60
10010;DHT22;5044;48.652;9.250;2023-06-14T13:07:04;30.80;31.20
10010;DHT22;5044;48.652;9.250;2023-06-14T13:09:31;31.50;31.80
10010;DHT22;5044;48.652;9.250;2023-06-14T13:11:57;31.10;31.20
10010;DHT22;5044;48.652;9.250;2023-06-14T13:14:24;31.00;31.20
10010;DHT22;5044;48.652;9.250;2023-06-14T13:16:52;30.90;31.60
10010;DHT22;5044;48.652;9.250;2023-06-14T13:19:20;30.00;31.30
10010;DHT22;5044;48.652;9.250;2023-06-14T13:21:48;29.10;31.10
10010;DHT22;5044;48.652;9.250;2023-06-14T13:24:14;28.50;31.80
10010;DHT22;5044;48.652;9.250;2023-06-14T13:26:42;28.70;32.90
10010;DHT22;5044;48.652;9.250;2023-06-14T13:29:09;28.10;32.80
10010;DHT22;5044;48.652;9.250;2023-06-14T13:31:35;27.40;32.90
10010;DHT22;5044;48.652;9.250;2023-06-14T13:34:04;28.10;34.20
10010;DHT22;5044;48.652;9.250;2023-06-14T13:36:31;29.10;34.40
10010;DHT22;5044;48.652;9.250;2023-06-14T13:38:57;29.30;33.70
10010;DHT22;5044;48.652;9.250;2023-06-14T13:41:27;29.90;34.00
10010;DHT22;5044;48.652;9.250;2023-06-14T13:43:57;30.00;33.20
10010;DHT22;5044;48.652;9.250;2023-06-14T13:46:25;30.20;33.00
10010;DHT22;5044;48.652;9.250;2023-06-14T13:48:52;30.20;32.70
10010;DHT22;5044;48.652;9.250;2023-06-14T13:51:21;30.80;32.80
10010;DHT22;5044;48.652;9.250;2023-06-14T13:53:48;29.80;31.60
10010;DHT22;5044;48.652;9.250;2023-06-14T13:56:16;30.00;32.30
10010;DHT22;5044;48.652;9.250;2023-06-14T13:58:43;30.20;32.70
10010;DHT22;5044;48.652;9.250;2023-06-14T14:01:10;29.00;31.90
10010;DHT22;5044;48.652;9.250;2023-06-14T14:03:38;28.10;32.00
10010;DHT22;5044;48.652;9.250;2023-06-14T14:06:05;27.30;32.30
10010;DHT22;5044;48.652;9.250;2023-06-14T14:08:34;27.10;33.00
10010;DHT22;5044;48.652;9.250;2023-06-14T14:11:01;27.00;33.40
10010;DHT22;5044;48.652;9.250;2023-06-14T14:13:28;27.10;34.10
10010;DHT22;5044;48.652;9.250;2023-06-14T14:15:55;28.00;35.10
10010;DHT22;5044;48.652;9.250;2023-06-14T14:18:22;27.20;34.30
10010;DHT22;5044;48.652;9.250;2023-06-14T14:20:49;27.00;34.30
10010;DHT22;5044;48.652;9.250;2023-06-14T14:23:15;27.80;34.90
10010;DHT22;5044;48.652;9.250;2023-06-14T14:25:44;27.20;34.40
10010;DHT22;5044;48.652;9.250;2023-06-14T14:28:11;26.40;34.20
10010;DHT22;5044;48.652;9.250;2023-06-14T14:30:39;26.30;34.70
10010;DHT22;5044;48.652;9.250;2023-06-14T14:33:06;27.00;35.60
10010;DHT22;5044;48.652;9.250;2023-06-14T14:35:34;27.20;34.90
10010;DHT22;5044;48.652;9.250;2023-06-14T14:38:00;27.50;34.80
10010;DHT22;5044;48.652;9.250;2023-06-14T14:40:28;28.00;35.10
10010;DHT22;5044;48.652;9.250;2023-06-14T14:42:56;27.90;34.60
10010;DHT22;5044;48.652;9.250;2023-06-14T14:45:23;28.40;34.50
10010;DHT22;5044;48.652;9.250;2023-06-14T14:47:50;29.60;35.60
10010;DHT22;5044;48.652;9.250;2023-06-14T14:50:17;30.00;35.00
10010;DHT22;5044;48.652;9.250;2023-06-14T14:52:44;29.80;34.10
10010;DHT22;5044;48.652;9.250;2023-06-14T14:55:11;28.90;33.20
10010;DHT22;5044;48.652;9.250;2023-06-14T14:57:38;28.50;33.70
10010;DHT22;5044;48.652;9.250;2023-06-14T15:00:07;28.00;34.00
10010;DHT22;5044;48.652;9.250;2023-06-14T15:02:35;27.80;35.00
10010;DHT22;5044;48.652;9.250;2023-06-14T15:05:02;27.70;35.20
10010;DHT22;5044;48.652;9.250;2023-06-14T15:07:30;28.30;35.50
10010;DHT22;5044;48.652;9.250;2023-06-14T15:09:59;28.50;35.40
10010;DHT22;5044;48.652;9.250;2023-06-14T15:12:26;28.60;35.10
10010;DHT22;5044;48.652;9.250;2023-06-14T15:14:53;28.40;35.00
10010;DHT22;5044;48.652;9.250;2023-06-14T15:17:21;28.30;34.90
10010;DHT22;5044;48.652;9.250;2023-06-14T15:19:49;28.70;35.50
10010;DHT22;5044;48.652;9.250;2023-06-14T15:22:16;28.70;34.40
10010;DHT22;5044;48.652;9.250;2023-06-14T15:24:43;28.40;34.10
10010;DHT22;5044;48.652;9.250;2023-06-14T15:27:11;28.40;34.20
10010;DHT22;5044;48.652;9.250;2023-06-14T15:29:39;28.90;35.10
10010;DHT22;5044;48.652;9.250;2023-06-14T15:32:07;29.00;34.70
10010;DHT22;5044;48.652;9.250;2023-06-14T15:34:35;28.10;33.60
10010;DHT22;5044;48.652;9.250;2023-06-14T15:37:03;28.40;34.00
10010;DHT22;5044;48.652;9.250;2023-06-14T15:39:30;28.70;34.10
10010;DHT22;5044;48.652;9.250;2023-06-14T15:41:58;28.60;33.50
10010;DHT22;5044;48.652;9.250;2023-06-14T15:44:26;29.30;34.20
10010;DHT22;5044;48.652;9.250;2023-06-14T15:46:53;29.20;33.70
10010;DHT22;5044;48.652;9.250;2023-06-14T15:49:19;29.00;33.50
10010;DHT22;5044;48.652;9.250;2023-06-14T15:51:48;28.50;33.50
10010;DHT22;5044;48.652;9.250;2023-06-14T15:54:14;27.90;34.00
10010;DHT22;5044;48.652;9.250;2023-06-14T15:56:41;27.60;34.10
10010;DHT22;5044;48.652;9.250;2023-06-14T15:59:08;27.60;34.60
10010;DHT22;5044;48.652;9.250;2023-06-14T16:01:35;27.70;35.10
10010;DHT22;5044;48.652;9.250;2023-06-14T16:04:02;27.30;35.30
10010;DHT22;5044;48.652;9.250;2023-06-14T16:06:29;27.30;35.80
10010;DHT22;5044;48.652;9.250;2023-06-14T16:08:57;27.20;35.70
10010;DHT22;5044;48.652;9.250;2023-06-14T16:11:23;27.00;35.80
10010;DHT22;5044;48.652;9.250;2023-06-14T16:13:50;27.10;36.00
10010;DHT22;5044;48.652;9.250;2023-06-14T16:16:17;26.80;36.00
10010;DHT22;5044;48.652;9.250;2023-06-14T16:18:46;26.70;36.20
10010;DHT22;5044;48.652;9.250;2023-06-14T16:21:12;26.60;36.30
10010;DHT22;5044;48.652;9.250;2023-06-14T16:23:40;26.60;36.50
10010;DHT22;5044;48.652;9.250;2023-06-14T16:26:10;26.40;36.60
10010;DHT22;5044;48.652;9.250;2023-06-14T16:28:38;26.60;37.00
10010;DHT22;5044;48.652;9.250;2023-06-14T16:31:07;26.20;36.80
10010;DHT22;5044;48.652;9.250;2023-06-14T16:33:34;26.30;37.10
10010;DHT22;5044;48.652;9.250;2023-06-14T16:36:01;26.10;37.10
10010;DHT22;5044;48.652;9.250;2023-06-14T16:38:28;26.00;37.20
10010;DHT22;5044;48.652;9.250;2023-06-14T16:40:55;26.30;37.60
10010;DHT22;5044;48.652;9.250;2023-06-14T16:43:23;26.10;37.40
10010;DHT22;5044;48.652;9.250;2023-06-14T16:45:50;26.30;37.90
10010;DHT22;5044;48.652;9.250;2023-06-14T16:48:17;26.60;38.40
10010;DHT22;5044;48.652;9.250;2023-06-14T16:50:46;26.60;38.30
10010;DHT22;5044;48.652;9.250;2023-06-14T16:53:13;25.70;37.70
10010;DHT22;5044;48.652;9.250;2023-06-14T16:55:40;25.80;38.20
10010;DHT22;5044;48.652;9.250;2023-06-14T16:58:07;25.70;38.20
10010;DHT22;5044;48.652;9.250;2023-06-14T17:00:35;25.30;37.60
10010;DHT22;5044;48.652;9.250;2023-06-14T17:03:02;25.50;38.10
10010;DHT22;5044;48.652;9.250;2023-06-14T17:05:30;25.40;38.20
10010;DHT22;5044;48.652;9.250;2023-06-14T17:07:57;25.60;38.30
10010;DHT22;5044;48.652;9.250;2023-06-14T17:10:25;25.60;39.00
10010;DHT22;5044;48.652;9.250;2023-06-14T17:12:52;25.60;38.60
10010;DHT22;5044;48.652;9.250;2023-06-14T17:15:18;25.70;38.50
10010;DHT22;5044;48.652;9.250;2023-06-14T17:17:47;25.40;37.90
10010;DHT22;5044;48.652;9.250;2023-06-14T17:20:14;25.50;37.90
10010;DHT22;5044;48.652;9.250;2023-06-14T17:22:41;25.60;38.30
10010;DHT22;5044;48.652;9.250;2023-06-14T17:25:09;25.40;38.30
10010;DHT22;5044;48.652;9.250;2023-06-14T17:27:36;25.40;39.10
10010;DHT22;5044;48.652;9.250;2023-06-14T17:30:03;25.40;39.00
10010;DHT22;5044;48.652;9.250;2023-06-14T17:32:30;25.30;38.80
10010;DHT22;5044;48.652;9.250;2023-06-14T17:34:58;24.90;38.70
10010;DHT22;5044;48.652;9.250;2023-06-14T17:37:25;24.70;38.70
10010;DHT22;5044;48.652;9.250;2023-06-14T17:39:53;24.60;38.90
10010;DHT22;5044;48.652;9.250;2023-06-14T17:42:21;24.50;39.30
10010;DHT22;5044;48.652;9.250;2023-06-14T17:44:48;24.70;40.00
10010;DHT22;5044;48.652;9.250;2023-06-14T17:47:19;24.90;40.30
10010;DHT22;5044;48.652;9.250;2023-06-14T17:49:47;24.90;40.50
10010;DHT22;5044;48.652;9.250;2023-06-14T17:52:20;25.10;40.90
10010;DHT22;5044;48.652;9.250;2023-06-14T17:54:47;25.10;40.90
10010;DHT22;5044;48.652;9.250;2023-06-14T17:57:14;25.10;40.90
10010;DHT22;5044;48.652;9.250;2023-06-14T17:59:42;25.10;41.00
10010;DHT22;5044;48.652;9.250;2023-06-14T18:02:09;24.70;40.30
10010;DHT22;5044;48.652;9.250;2023-06-14T18:04:38;24.70;40.70
10010;DHT22;5044;48.652;9.250;2023-06-14T18:07:05;24.70;40.90
10010;DHT22;5044;48.652;9.250;2023-06-14T18:09:35;24.70;41.00
10010;DHT22;5044;48.652;9.250;2023-06-14T18:12:04;24.60;41.10
10010;DHT22;5044;48.652;9.250;2023-06-14T18:14:33;24.60;41.30
10010;DHT22;5044;48.652;9.250;2023-06-14T18:17:02;24.60;41.50
10010;DHT22;5044;48.652;9.250;2023-06-14T18:19:29;24.40;41.40
10010;DHT22;5044;48.652;9.250;2023-06-14T18:22:03;24.10;41.10
10010;DHT22;5044;48.652;9.250;2023-06-14T18:24:31;23.90;41.10
10010;DHT22;5044;48.652;9.250;2023-06-14T18:27:01;23.70;41.20
10010;DHT22;5044;48.652;9.250;2023-06-14T18:29:30;23.70;41.70